Time;durP1;ratioP1;P1;durP2;ratioP2;P2;SDS_P1;SDS_P2;PMS_P1;PMS_P2;Temp;Humidity;BMP_temperature;BMP_pressure;BME280_temperature;BME280_humidity;BME280_pressure;Samples;Min_cycle;Max_cycle;Signal;HPM_P1;HPM_P2
2022/03/26 00:00:26;;;;;;;39.17;24.98;;;;;;;10.64;57.40;101151.72;4905608;29;20574;-90
2022/03/26 00:02:52;;;;;;;38.08;24.00;;;;;;;10.61;57.52;101148.41;4905607;29;20036;-91
2022/03/26 00:05:18;;;;;;;39.10;24.85;;;;;;;10.59;57.43;101150.34;4905754;29;20028;-90
2022/03/26 00:07:44;;;;;;;32.85;22.55;;;;;;;10.60;57.84;101147.56;4905321;29;20024;-90
2022/03/26 00:10:10;;;;;;;39.58;22.25;;;;;;;10.59;57.74;101150.34;4921299;29;20479;-90
2022/03/26 00:12:36;;;;;;;40.40;23.38;;;;;;;10.61;57.85;101149.28;4905055;29;20032;-90
2022/03/26 00:15:02;;;;;;;38.10;23.15;;;;;;;10.56;57.98;101153.25;4920801;29;20051;-91
2022/03/26 00:17:27;;;;;;;37.45;23.00;;;;;;;10.52;58.20;101149.06;4905087;29;20034;-91
2022/03/26 00:19:53;;;;;;;38.10;23.17;;;;;;;10.49;57.89;101158.16;4905065;29;20393;-90
2022/03/26 00:22:19;;;;;;;34.40;20.85;;;;;;;10.46;57.50;101158.38;4905048;29;20032;-90
2022/03/26 00:24:44;;;;;;;35.42;22.13;;;;;;;10.37;57.83;101154.50;4920711;29;20028;-90
2022/03/26 00:27:09;;;;;;;33.42;21.58;;;;;;;10.43;57.61;101158.59;4904969;29;20492;-90
2022/03/26 00:29:35;;;;;;;35.33;21.75;;;;;;;10.43;57.97;101155.94;4920618;29;20031;-90
2022/03/26 00:32:02;;;;;;;34.42;23.13;;;;;;;10.43;58.17;101155.06;4905070;29;20031;-90
2022/03/26 00:34:27;;;;;;;31.40;21.10;;;;;;;10.37;57.87;101154.50;4920760;29;20102;-91
2022/03/26 00:36:52;;;;;;;29.08;20.15;;;;;;;10.38;57.76;101150.03;4901692;29;20142;-90
2022/03/26 00:39:18;;;;;;;33.85;21.42;;;;;;;10.36;57.60;101152.81;4901474;29;20028;-91
2022/03/26 00:41:43;;;;;;;32.20;21.52;;;;;;;10.32;57.56;101151.31;4901475;29;20051;-90
2022/03/26 00:44:09;;;;;;;32.03;19.85;;;;;;;10.33;57.91;101153.00;4901760;29;20035;-90
2022/03/26 00:46:34;;;;;;;33.38;20.50;;;;;;;10.33;58.19;101150.34;4901511;29;20024;-90
2022/03/26 00:49:00;;;;;;;35.20;21.02;;;;;;;10.35;58.11;101145.75;4901368;29;20048;-91
2022/03/26 00:51:25;;;;;;;32.30;22.05;;;;;;;10.32;58.20;101153.97;4901207;29;20445;-90
2022/03/26 00:53:51;;;;;;;32.13;20.58;;;;;;;10.32;58.20;101156.66;4917355;29;20039;-90
2022/03/26 00:56:17;;;;;;;31.40;21.08;;;;;;;10.30;58.36;101147.88;4901424;29;20379;-90
2022/03/26 00:58:42;;;;;;;36.22;22.05;;;;;;;10.25;57.47;101155.38;4901801;29;20107;-90
2022/03/26 01:01:08;;;;;;;30.02;20.48;;;;;;;10.19;57.74;101152.22;4901682;29;20370;-90
2022/03/26 01:03:34;;;;;;;32.20;21.73;;;;;;;10.29;57.76;101154.19;4900266;29;20367;-90
2022/03/26 01:05:59;;;;;;;32.33;21.42;;;;;;;10.28;57.47;101149.81;4901101;29;20020;-90
2022/03/26 01:08:25;;;;;;;31.92;19.77;;;;;;;10.24;57.37;101144.78;4901510;29;20027;-90
2022/03/26 01:10:50;;;;;;;34.95;20.20;;;;;;;10.22;57.84;101160.06;4903598;29;20024;-91
2022/03/26 01:13:16;;;;;;;32.13;20.85;;;;;;;10.16;57.86;101150.63;4901509;29;20040;-90
2022/03/26 01:15:41;;;;;;;34.83;21.45;;;;;;;10.16;58.00;101150.63;4901119;29;20486;-90
2022/03/26 01:18:07;;;;;;;32.53;19.77;;;;;;;10.12;58.23;101149.13;4901791;29;20092;-90
2022/03/26 01:20:32;;;;;;;31.63;19.88;;;;;;;10.15;58.08;101148.91;4912368;29;20381;-91
2022/03/26 01:22:58;;;;;;;33.45;20.50;;;;;;;10.17;57.78;101152.34;4902225;29;20111;-89
2022/03/26 01:25:24;;;;;;;30.98;20.98;;;;;;;10.15;57.85;101142.72;4900808;29;20024;-90
2022/03/26 01:27:50;;;;;;;29.88;19.13;;;;;;;10.09;57.77;101150.19;4901137;29;20023;-90
2022/03/26 01:30:15;;;;;;;29.88;19.27;;;;;;;9.99;58.04;101138.44;4916474;29;20024;-90
2022/03/26 01:32:43;;;;;;;31.50;19.85;;;;;;;10.04;58.03;101135.44;4900757;29;20067;-90
2022/03/26 01:35:09;;;;;;;35.13;20.55;;;;;;;10.02;58.03;101143.56;4901088;29;20021;-90
2022/03/26 01:37:35;;;;;;;30.23;20.60;;;;;;;10.01;58.05;101141.00;4900320;29;20055;-91
2022/03/26 01:40:00;;;;;;;31.80;20.85;;;;;;;9.90;58.35;101136.34;4900482;29;20390;-90
2022/03/26 01:42:25;;;;;;;30.63;19.98;;;;;;;9.78;58.90;101134.53;4900554;29;20024;-90
2022/03/26 01:44:51;;;;;;;27.38;19.45;;;;;;;9.82;58.89;101129.81;4916094;29;20028;-90
2022/03/26 01:47:17;;;;;;;33.20;21.02;;;;;;;9.87;58.63;101127.69;4900347;29;20505;-90
2022/03/26 01:49:42;;;;;;;30.23;19.45;;;;;;;9.85;58.25;101124.28;4900405;29;20028;-90
2022/03/26 01:52:10;;;;;;;30.25;19.92;;;;;;;9.84;58.53;101126.09;4900485;29;20024;-90
2022/03/26 01:54:37;;;;;;;28.48;19.10;;;;;;;9.83;58.14;101120.84;4900622;29;20154;-90
2022/03/26 01:57:02;;;;;;;30.98;19.50;;;;;;;9.86;57.95;101123.31;4915949;29;20482;-90
2022/03/26 01:59:28;;;;;;;28.00;19.50;;;;;;;9.88;58.00;101122.25;4900292;29;20092;-90
2022/03/26 02:01:53;;;;;;;32.63;21.02;;;;;;;9.85;57.85;101111.78;4900125;29;20031;-91
2022/03/26 02:04:19;;;;;;;29.00;19.35;;;;;;;9.84;58.13;101114.56;4899962;29;20131;-92
2022/03/26 02:06:44;;;;;;;30.70;19.08;;;;;;;9.81;58.13;101109.41;4915711;29;20069;-90
2022/03/26 02:09:12;;;;;;;30.85;20.70;;;;;;;9.63;58.71;101108.84;4899972;29;20490;-90
2022/03/26 02:11:39;;;;;;;28.88;19.73;;;;;;;9.54;59.41;101113.00;4899879;29;20027;-90
2022/03/26 02:14:07;;;;;;;28.83;19.10;;;;;;;9.67;59.38;101116.56;4899782;29;20024;-90
2022/03/26 02:16:32;;;;;;;28.48;19.35;;;;;;;9.73;58.89;101116.13;4899958;29;20024;-90
2022/03/26 02:18:58;;;;;;;32.15;20.15;;;;;;;9.63;58.79;101115.06;4900103;29;20035;-90
2022/03/26 02:21:24;;;;;;;33.45;19.80;;;;;;;9.59;58.95;101113.56;4915470;29;20076;-90
2022/03/26 02:23:51;;;;;;;30.60;19.30;;;;;;;9.61;58.43;101108.97;4899925;29;20036;-91
2022/03/26 02:26:19;;;;;;;31.02;18.95;;;;;;;9.66;58.78;101109.50;4899966;29;20024;-91
2022/03/26 02:28:45;;;;;;;31.13;19.00;;;;;;;9.67;58.72;101113.88;4900068;29;20031;-91
2022/03/26 02:31:12;;;;;;;30.23;18.63;;;;;;;9.64;58.58;101106.09;4899516;29;20086;-90
2022/03/26 02:33:38;;;;;;;33.80;20.00;;;;;;;9.63;58.76;101104.38;4899764;29;20111;-90
2022/03/26 02:36:04;;;;;;;29.60;20.25;;;;;;;9.63;58.70;101106.19;4901834;29;20176;-90
2022/03/26 02:38:29;;;;;;;32.70;19.30;;;;;;;9.61;58.23;101105.44;4918572;29;20032;-90
2022/03/26 02:40:54;;;;;;;29.30;19.63;;;;;;;9.59;58.79;101110.03;4902766;29;20024;-90
2022/03/26 02:43:20;;;;;;;29.55;19.30;;;;;;;9.52;58.69;101109.59;4918575;29;20035;-90
2022/03/26 02:45:46;;;;;;;29.40;18.38;;;;;;;9.51;58.32;101112.34;4902798;29;20071;-90
2022/03/26 02:48:13;;;;;;;29.42;18.88;;;;;;;9.48;58.64;101108.06;4902769;29;20590;-91
2022/03/26 02:50:42;;;;;;;31.00;17.67;;;;;;;9.46;58.40;101112.66;4918169;29;20028;-91
2022/03/26 02:53:08;;;;;;;29.17;18.50;;;;;;;9.41;59.03;101122.75;4902501;29;20019;-90
2022/03/26 02:55:34;;;;;;;28.88;18.48;;;;;;;9.23;59.19;101115.97;4902579;29;20047;-91
2022/03/26 02:58:00;;;;;;;25.15;17.70;;;;;;;9.08;60.22;101125.84;4902924;29;20023;-90
2022/03/26 03:00:25;;;;;;;28.48;17.90;;;;;;;9.24;59.61;101117.69;4902727;29;20377;-90
2022/03/26 03:02:51;;;;;;;28.35;18.00;;;;;;;9.36;59.66;101127.56;4918240;29;20524;-90
2022/03/26 03:05:16;;;;;;;31.90;19.25;;;;;;;9.38;59.46;101122.97;4902320;29;20123;-90
2022/03/26 03:07:41;;;;;;;29.23;17.92;;;;;;;9.35;58.90;101118.69;4902562;29;20441;-90
2022/03/26 03:10:07;;;;;;;28.45;18.98;;;;;;;9.35;59.06;101120.50;4902447;29;20042;-90
2022/03/26 03:12:33;;;;;;;29.40;18.58;;;;;;;9.38;58.70;101128.31;4902432;29;20059;-91
2022/03/26 03:14:59;;;;;;;29.10;18.40;;;;;;;9.35;59.25;101129.38;4902661;29;20048;-91
2022/03/26 03:17:24;;;;;;;27.52;18.05;;;;;;;9.35;58.86;101124.03;4902396;29;20027;-90
2022/03/26 03:19:49;;;;;;;29.85;17.85;;;;;;;9.25;58.67;101125.59;4902202;29;20675;-90
2022/03/26 03:22:16;;;;;;;28.52;17.60;;;;;;;9.25;59.05;101124.75;4901686;29;20028;-91
2022/03/26 03:24:41;;;;;;;27.17;17.23;;;;;;;9.23;58.97;101121.31;4901735;29;20086;-90
2022/03/26 03:27:07;;;;;;;27.13;18.10;;;;;;;9.31;59.28;101122.53;4920975;29;20032;-90
2022/03/26 03:29:32;;;;;;;25.90;16.42;;;;;;;9.24;59.30;101131.88;4905863;29;20060;-91
2022/03/26 03:31:58;;;;;;;27.52;18.13;;;;;;;9.14;59.41;101134.31;4905870;29;20023;-90
2022/03/26 03:34:23;;;;;;;28.98;17.38;;;;;;;9.20;59.54;101132.19;4921653;29;20051;-90
2022/03/26 03:36:49;;;;;;;29.67;18.45;;;;;;;9.15;59.27;101136.03;4905558;29;20055;-91
2022/03/26 03:39:14;;;;;;;26.42;16.98;;;;;;;9.20;59.33;101134.88;4921524;29;20091;-90
2022/03/26 03:41:40;;;;;;;25.38;16.90;;;;;;;9.19;59.14;101131.34;4905480;29;20067;-91
2022/03/26 03:44:06;;;;;;;28.25;17.88;;;;;;;9.23;59.07;101129.31;4905470;29;20028;-90
2022/03/26 03:46:33;;;;;;;27.63;17.52;;;;;;;9.23;59.45;101140.00;4905445;29;20112;-90
2022/03/26 03:48:58;;;;;;;28.50;17.95;;;;;;;9.13;59.07;101137.94;4905591;29;20106;-90
2022/03/26 03:51:23;;;;;;;26.85;17.10;;;;;;;9.12;59.72;101141.56;4921039;29;20114;-90
2022/03/26 03:53:49;;;;;;;29.73;17.85;;;;;;;9.11;59.97;101145.19;4905478;29;20020;-91
2022/03/26 03:56:14;;;;;;;29.05;18.08;;;;;;;9.03;59.92;101141.28;4921047;29;20035;-91
2022/03/26 03:58:39;;;;;;;27.85;17.15;;;;;;;9.01;59.66;101144.06;4921042;29;20031;-91
2022/03/26 04:01:05;;;;;;;26.50;17.70;;;;;;;9.02;59.99;101150.25;4905110;29;20378;-90
2022/03/26 04:03:30;;;;;;;25.17;16.90;;;;;;;9.08;59.62;101148.06;4920901;29;20131;-90
2022/03/26 04:05:56;;;;;;;28.08;17.92;;;;;;;9.12;59.24;101144.22;4920977;29;20470;-91
2022/03/26 04:08:21;;;;;;;27.08;17.50;;;;;;;9.17;59.39;101149.25;4905274;29;20019;-91
2022/03/26 04:10:47;;;;;;;28.77;18.10;;;;;;;9.11;59.05;101145.19;4921022;29;20039;-90
2022/03/26 04:13:12;;;;;;;27.40;17.42;;;;;;;9.09;59.47;101146.25;4905385;29;20485;-90
2022/03/26 04:15:38;;;;;;;30.40;18.48;;;;;;;9.03;59.17;101144.81;4920873;29;20119;-90
2022/03/26 04:18:03;;;;;;;30.15;18.25;;;;;;;9.07;59.65;101140.16;4920785;29;20154;-91
2022/03/26 04:20:29;;;;;;;31.85;18.50;;;;;;;8.97;59.89;101147.84;4920752;29;20175;-90
2022/03/26 04:22:54;;;;;;;29.02;17.88;;;;;;;8.98;59.66;101146.03;4905073;29;20027;-90
2022/03/26 04:25:19;;;;;;;31.35;18.58;;;;;;;8.92;59.85;101149.09;4920942;29;20504;-91
2022/03/26 04:27:46;;;;;;;28.67;17.20;;;;;;;8.89;60.10;101146.63;4905165;29;20027;-90
2022/03/26 04:30:12;;;;;;;26.80;17.45;;;;;;;8.95;59.85;101152.44;4920743;29;20678;-90
2022/03/26 04:32:37;;;;;;;25.48;16.40;;;;;;;9.01;59.53;101146.72;4905265;29;20055;-90
2022/03/26 04:35:04;;;;;;;28.30;17.55;;;;;;;8.91;59.62;101152.72;4920808;29;20019;-90
2022/03/26 04:37:29;;;;;;;31.02;17.58;;;;;;;8.81;59.79;101150.66;4906858;29;20071;-90
2022/03/26 04:39:54;;;;;;;25.10;16.48;;;;;;;8.87;59.63;101148.53;4886656;29;20114;-90
2022/03/26 04:42:20;;;;;;;28.40;17.55;;;;;;;8.83;59.54;101150.56;4901802;29;20032;-91
2022/03/26 04:44:45;;;;;;;28.60;17.42;;;;;;;8.77;59.58;101148.28;4886052;29;20028;-90
2022/03/26 04:47:10;;;;;;;27.25;17.75;;;;;;;8.75;59.93;101152.84;4904033;29;20051;-90
2022/03/26 04:49:36;;;;;;;27.45;18.00;;;;;;;8.70;59.97;101157.63;4901717;29;20024;-91
2022/03/26 04:52:01;;;;;;;28.92;17.95;;;;;;;8.71;60.49;101156.66;4901599;29;20028;-90
2022/03/26 04:54:27;;;;;;;28.38;17.52;;;;;;;8.65;60.79;101163.25;4885829;29;20490;-90
2022/03/26 04:56:52;;;;;;;26.98;17.23;;;;;;;8.69;60.78;101161.25;4901233;29;20058;-90
2022/03/26 04:59:18;;;;;;;27.02;17.13;;;;;;;8.70;60.28;101163.81;4885828;29;20497;-91
2022/03/26 05:01:44;;;;;;;28.17;17.30;;;;;;;8.70;59.97;101165.63;4901426;29;20521;-90
2022/03/26 05:04:14;;;;;;;28.92;17.58;;;;;;;8.75;59.77;101160.84;4885856;29;20032;-90
2022/03/26 05:06:39;;;;;;;27.17;16.98;;;;;;;8.74;60.02;101157.31;4885590;29;20040;-90
2022/03/26 05:09:05;;;;;;;30.33;17.80;;;;;;;8.78;59.72;101152.66;4901342;29;20028;-90
2022/03/26 05:11:30;;;;;;;30.75;17.95;;;;;;;8.75;59.71;101163.50;4901397;29;20043;-90
2022/03/26 05:13:57;;;;;;;27.67;17.38;;;;;;;8.65;60.38;101165.06;4885543;29;20502;-90
2022/03/26 05:16:22;;;;;;;27.60;17.75;;;;;;;8.67;60.98;101160.47;4885954;29;20028;-91
2022/03/26 05:18:48;;;;;;;27.02;17.85;;;;;;;8.54;60.44;101165.72;4901271;29;20083;-90
2022/03/26 05:21:13;;;;;;;27.98;17.25;;;;;;;8.52;61.21;101164.97;4885333;29;20036;-91
2022/03/26 05:23:38;;;;;;;27.83;18.60;;;;;;;8.48;61.14;101168.75;4885250;29;20029;-91
2022/03/26 05:26:04;;;;;;;25.48;17.65;;;;;;;8.51;60.79;101165.88;4901306;29;20099;-90
2022/03/26 05:28:29;;;;;;;28.77;17.25;;;;;;;8.49;60.43;101165.13;4900799;29;20028;-90
2022/03/26 05:30:55;;;;;;;29.17;17.13;;;;;;;8.55;60.80;101169.25;4884989;29;20032;-91
2022/03/26 05:33:20;;;;;;;31.42;18.70;;;;;;;8.55;60.16;101166.59;4885191;29;20023;-90
2022/03/26 05:35:46;;;;;;;28.70;18.92;;;;;;;8.54;60.92;101167.53;4900913;29;20044;-91
2022/03/26 05:38:11;;;;;;;28.27;18.63;;;;;;;8.52;61.12;101163.16;4903978;29;20024;-90
2022/03/26 05:40:37;;;;;;;29.17;18.30;;;;;;;8.53;60.70;101172.00;4919303;29;20024;-92
2022/03/26 05:43:03;;;;;;;27.20;17.38;;;;;;;8.50;61.07;101173.03;4903432;29;20028;-91
2022/03/26 05:45:29;;;;;;;27.50;18.58;;;;;;;8.48;60.71;101174.06;4903539;29;20028;-90
2022/03/26 05:48:01;;;;;;;28.42;17.85;;;;;;;8.43;61.01;101179.69;4903335;29;20028;-90
2022/03/26 05:50:27;;;;;;;28.30;18.83;;;;;;;8.44;60.56;101184.06;4903535;29;20032;-90
2022/03/26 05:52:52;;;;;;;30.15;19.20;;;;;;;8.44;60.79;101183.22;4903253;29;20031;-90
2022/03/26 05:55:18;;;;;;;28.65;17.92;;;;;;;8.48;61.06;101180.25;4919024;29;20035;-90
2022/03/26 05:57:43;;;;;;;30.02;17.25;;;;;;;8.51;60.61;101180.09;4919272;29;20031;-90
2022/03/26 06:00:10;;;;;;;32.40;18.55;;;;;;;8.52;61.31;101175.63;4903036;29;20028;-90
2022/03/26 06:02:36;;;;;;;27.33;17.48;;;;;;;8.52;60.56;101184.47;4903175;29;20035;-91
2022/03/26 06:05:02;;;;;;;28.40;18.58;;;;;;;8.46;61.49;101192.81;4903064;29;20032;-90
2022/03/26 06:11:08;;;;;;;29.45;18.35;;;;;;;8.49;61.36;101200.63;4936250;29;20553;-90
2022/03/26 06:13:34;;;;;;;29.48;18.23;;;;;;;8.52;61.26;101196.94;4918976;29;20028;-90
2022/03/26 06:15:59;;;;;;;26.75;17.65;;;;;;;8.47;61.49;101197.19;4903087;29;20049;-90
2022/03/26 06:18:25;;;;;;;27.90;17.40;;;;;;;8.45;61.64;101201.78;4903544;29;20023;-90
2022/03/26 06:20:51;;;;;;;31.60;18.77;;;;;;;8.45;61.88;101209.78;4903247;29;20407;-90
2022/03/26 06:23:16;;;;;;;28.95;18.65;;;;;;;8.49;62.07;101207.78;4902743;29;20024;-90
2022/03/26 06:25:42;;;;;;;29.92;18.35;;;;;;;8.50;62.04;101207.69;4902885;29;20055;-91
2022/03/26 06:28:07;;;;;;;29.65;19.25;;;;;;;8.55;62.22;101207.44;4902791;29;20028;-90
2022/03/26 06:30:33;;;;;;;30.45;18.73;;;;;;;8.52;62.22;101211.13;4902711;29;20024;-90
2022/03/26 06:32:58;;;;;;;29.05;18.08;;;;;;;8.55;62.44;101210.09;4902902;29;20513;-90
2022/03/26 06:35:24;;;;;;;29.30;18.65;;;;;;;8.55;62.56;101203.91;4902843;29;20123;-91
2022/03/26 06:37:49;;;;;;;27.45;17.52;;;;;;;8.59;62.52;101210.75;4899624;29;20059;-90
2022/03/26 06:40:15;;;;;;;29.42;18.15;;;;;;;8.63;63.15;101215.81;4900283;29;20028;-91
2022/03/26 06:42:40;;;;;;;32.15;21.20;;;;;;;8.58;62.93;101214.38;4899806;29;20024;-91
2022/03/26 06:45:06;;;;;;;31.30;20.00;;;;;;;8.57;63.47;101215.31;4899934;29;20024;-91
2022/03/26 06:47:31;;;;;;;31.52;19.58;;;;;;;8.61;63.42;101208.84;4899923;29;20030;-91
2022/03/26 06:49:57;;;;;;;29.75;20.58;;;;;;;8.64;63.44;101220.19;4915475;29;20160;-91
2022/03/26 06:52:23;;;;;;;31.15;19.67;;;;;;;8.56;63.76;101218.94;4899736;29;20115;-92
2022/03/26 06:54:49;;;;;;;32.53;19.85;;;;;;;8.59;63.89;101221.44;4900077;29;20497;-90
2022/03/26 06:57:15;;;;;;;30.17;18.77;;;;;;;8.66;64.05;101222.75;4900106;29;20061;-91
2022/03/26 06:59:40;;;;;;;32.22;19.55;;;;;;;8.67;63.75;101230.66;4899800;29;20032;-90
2022/03/26 07:02:06;;;;;;;30.65;20.45;;;;;;;8.66;64.18;101228.09;4903053;29;20024;-91
2022/03/26 07:04:32;;;;;;;31.50;20.05;;;;;;;8.69;64.75;101227.91;4904458;29;20083;-90
2022/03/26 07:06:57;;;;;;;31.10;19.73;;;;;;;8.70;64.53;101235.81;4907342;29;20028;-90
2022/03/26 07:09:23;;;;;;;30.20;20.15;;;;;;;8.82;64.42;101226.19;4925946;29;20032;-92
2022/03/26 07:11:50;;;;;;;34.72;20.63;;;;;;;8.79;64.58;101240.56;4922891;29;20032;-91
2022/03/26 07:14:15;;;;;;;33.53;21.38;;;;;;;8.79;64.91;101235.25;4911618;29;20043;-90
2022/03/26 07:16:40;;;;;;;37.92;21.20;;;;;;;8.80;65.46;101234.28;4905783;29;20381;-90
2022/03/26 07:19:06;;;;;;;34.35;22.17;;;;;;;8.87;65.17;101245.44;4903511;29;20391;-90
2022/03/26 07:21:32;;;;;;;37.65;21.20;;;;;;;8.89;65.04;101240.00;4903185;29;20020;-90
2022/03/26 07:23:57;;;;;;;38.60;21.80;;;;;;;8.91;65.03;101240.75;4919144;29;20062;-90
2022/03/26 07:26:23;;;;;;;34.08;21.02;;;;;;;8.95;65.12;101242.28;4902983;29;20123;-90
2022/03/26 07:28:49;;;;;;;34.50;22.40;;;;;;;8.97;65.66;101243.03;4903306;29;20024;-91
2022/03/26 07:31:15;;;;;;;38.00;22.30;;;;;;;8.99;65.04;101244.69;4903248;29;20032;-90
2022/03/26 07:33:40;;;;;;;36.55;23.90;;;;;;;9.01;64.79;101247.25;4903032;29;20115;-90
2022/03/26 07:36:05;;;;;;;37.63;23.88;;;;;;;9.06;65.32;101247.81;4920870;29;20071;-90
2022/03/26 07:38:31;;;;;;;39.85;24.77;;;;;;;9.05;65.96;101254.97;4904834;29;20063;-90
2022/03/26 07:40:57;;;;;;;36.35;24.55;;;;;;;9.10;65.80;101254.69;4905009;29;20094;-91
2022/03/26 07:43:22;;;;;;;47.08;30.02;;;;;;;9.17;65.93;101256.00;4904996;29;20031;-90
2022/03/26 07:45:48;;;;;;;45.90;29.98;;;;;;;9.22;66.03;101255.72;4904611;29;20035;-91
2022/03/26 07:48:13;;;;;;;47.45;29.75;;;;;;;9.21;66.30;101254.88;4904906;29;20421;-90
2022/03/26 07:50:39;;;;;;;44.58;27.77;;;;;;;9.24;67.26;101261.81;4920434;29;20031;-90
2022/03/26 07:53:04;;;;;;;44.97;26.55;;;;;;;9.27;67.20;101267.81;4920320;29;20377;-91
2022/03/26 07:55:30;;;;;;;40.80;24.65;;;;;;;9.33;65.90;101269.22;4904087;29;20059;-89
2022/03/26 07:57:55;;;;;;;41.70;24.17;;;;;;;9.39;64.98;101263.50;4922992;29;20105;-90
2022/03/26 08:00:21;;;;;;;39.88;24.08;;;;;;;9.41;65.27;101259.78;4922639;29;20039;-89
2022/03/26 08:02:46;;;;;;;42.60;24.27;;;;;;;9.45;64.78;101263.09;4922920;29;20038;-89
2022/03/26 08:05:12;;;;;;;41.35;23.52;;;;;;;9.50;65.02;101260.16;4922970;29;20051;-88
2022/03/26 08:07:37;;;;;;;37.72;22.63;;;;;;;9.52;65.03;101259.13;4922911;29;20103;-90
2022/03/26 08:10:03;;;;;;;35.92;22.83;;;;;;;9.56;64.94;101257.97;4923161;29;20438;-88
2022/03/26 08:12:28;;;;;;;36.67;22.50;;;;;;;9.65;64.81;101259.16;4922663;29;20019;-89
2022/03/26 08:14:54;;;;;;;38.20;23.38;;;;;;;9.67;64.55;101260.78;4922905;29;20023;-90
2022/03/26 08:17:19;;;;;;;39.30;23.02;;;;;;;9.67;64.30;101274.13;4922723;29;20388;-89
2022/03/26 08:19:45;;;;;;;38.53;23.63;;;;;;;9.69;64.18;101269.56;4923232;29;20031;-89
2022/03/26 08:22:10;;;;;;;38.20;24.20;;;;;;;9.73;64.01;101272.88;4923035;29;20094;-89
2022/03/26 08:24:36;;;;;;;37.70;23.10;;;;;;;9.74;63.80;101267.44;4920542;29;20027;-88
2022/03/26 08:27:03;;;;;;;40.83;23.50;;;;;;;9.79;64.14;101276.00;4903756;29;20118;-89
2022/03/26 08:29:28;;;;;;;42.53;24.20;;;;;;;9.83;64.77;101274.00;4908178;29;20099;-90
2022/03/26 08:31:54;;;;;;;40.55;24.42;;;;;;;9.88;64.69;101282.56;4909270;29;20453;-91
2022/03/26 08:34:20;;;;;;;41.13;24.40;;;;;;;9.87;64.75;101280.00;4904128;29;20020;-91
2022/03/26 08:36:46;;;;;;;39.83;22.67;;;;;;;9.85;64.36;101279.22;4857807;29;1461551;-91
2022/03/26 08:39:11;;;;;;;35.55;22.38;;;;;;;9.87;64.94;101282.66;4907700;29;20039;-91
2022/03/26 08:41:37;;;;;;;39.80;23.20;;;;;;;9.90;64.74;101277.97;4905684;29;20028;-91
2022/03/26 08:44:03;;;;;;;37.83;23.40;;;;;;;9.97;64.57;101283.78;4905975;29;20027;-92
2022/03/26 08:46:29;;;;;;;37.35;22.48;;;;;;;10.01;64.41;101282.63;4920999;29;20058;-91
2022/03/26 08:48:56;;;;;;;38.15;22.75;;;;;;;10.04;64.26;101283.28;4905667;29;20031;-90
2022/03/26 08:51:21;;;;;;;37.92;22.05;;;;;;;10.07;64.21;101279.56;4906403;29;20027;-91
2022/03/26 08:53:47;;;;;;;39.10;22.23;;;;;;;10.11;63.93;101278.38;4904726;29;20488;-91
2022/03/26 08:56:12;;;;;;;37.17;22.20;;;;;;;10.16;62.99;101281.59;4904886;29;20027;-91
2022/03/26 08:58:38;;;;;;;37.53;22.52;;;;;;;10.20;63.37;101272.44;4904514;29;20500;-91
2022/03/26 09:01:04;;;;;;;41.22;23.25;;;;;;;10.24;62.62;101286.47;4934470;29;20046;-91
2022/03/26 09:03:29;;;;;;;37.72;23.58;;;;;;;10.26;61.42;101274.72;4924060;29;20034;-90
2022/03/26 09:05:55;;;;;;;39.35;24.83;;;;;;;10.25;61.59;101273.00;4923775;29;20492;-91
2022/03/26 09:08:21;;;;;;;41.28;24.05;;;;;;;10.25;61.41;101275.66;4923522;29;20065;-91
2022/03/26 09:10:46;;;;;;;40.03;23.92;;;;;;;10.24;61.30;101281.97;4923720;29;20031;-90
2022/03/26 09:13:12;;;;;;;40.47;24.80;;;;;;;10.27;62.10;101276.41;4923325;29;20034;-90
2022/03/26 09:15:38;;;;;;;38.85;24.15;;;;;;;10.24;62.36;101267.75;4923250;29;20469;-90
2022/03/26 09:18:04;;;;;;;39.42;23.88;;;;;;;10.25;62.63;101264.13;4923127;29;20061;-91
2022/03/26 09:20:29;;;;;;;39.17;23.65;;;;;;;10.31;62.45;101272.59;4923054;29;20062;-90
2022/03/26 09:22:54;;;;;;;36.05;22.33;;;;;;;10.36;62.52;101275.78;4922426;29;20031;-90
2022/03/26 09:25:20;;;;;;;40.63;24.45;;;;;;;10.44;63.01;101272.63;4923172;29;20704;-90
2022/03/26 09:27:47;;;;;;;42.97;24.33;;;;;;;10.46;62.30;101272.53;4923149;29;20030;-90
2022/03/26 09:30:13;;;;;;;35.13;21.27;;;;;;;10.49;62.46;101269.63;4923413;29;20484;-90
2022/03/26 09:32:38;;;;;;;32.83;20.80;;;;;;;10.50;62.08;101269.53;4923156;29;20024;-91
2022/03/26 09:35:04;;;;;;;36.83;21.65;;;;;;;10.52;61.96;101264.09;4923082;29;20028;-91
2022/03/26 09:37:29;;;;;;;37.85;21.80;;;;;;;10.58;62.00;101269.00;4919342;29;20044;-90
2022/03/26 09:39:55;;;;;;;34.33;21.02;;;;;;;10.59;62.21;101271.56;4919292;29;20031;-90
2022/03/26 09:42:24;;;;;;;36.03;20.95;;;;;;;10.63;62.63;101267.72;4919734;29;20089;-90
2022/03/26 09:44:50;;;;;;;36.60;20.83;;;;;;;10.64;61.83;101271.25;4920272;29;20046;-91
2022/03/26 09:47:16;;;;;;;32.13;19.95;;;;;;;10.64;62.31;101271.25;4919744;29;20028;-91
2022/03/26 09:49:41;;;;;;;32.78;19.80;;;;;;;10.67;62.93;101277.25;4919482;29;20035;-91
2022/03/26 09:52:07;;;;;;;31.30;19.25;;;;;;;10.72;62.42;101268.91;4919274;29;20031;-90
2022/03/26 09:54:33;;;;;;;33.42;20.48;;;;;;;10.78;62.88;101273.81;4919564;29;20359;-90
2022/03/26 09:56:59;;;;;;;34.53;19.77;;;;;;;10.79;61.72;101266.66;4919462;29;20118;-90
2022/03/26 09:59:25;;;;;;;34.22;19.67;;;;;;;10.85;61.19;101261.72;4919520;29;20114;-90
2022/03/26 10:01:51;;;;;;;29.95;18.90;;;;;;;10.87;61.19;101259.81;4919022;29;20087;-90
2022/03/26 10:04:18;;;;;;;31.60;20.25;;;;;;;10.92;61.56;101259.50;4919049;29;20028;-91
2022/03/26 10:06:54;;;;;;;34.40;19.50;;;;;;;10.88;60.07;101261.53;4919374;29;20036;-90
2022/03/26 10:09:41;;;;;;;35.30;20.05;;;;;;;11.01;58.78;101264.22;4919411;29;20440;-90
2022/03/26 10:12:09;;;;;;;35.42;20.48;;;;;;;10.99;58.23;101260.78;4934944;29;20027;-90
2022/03/26 10:14:47;;;;;;;34.33;19.47;;;;;;;11.02;57.59;101264.09;4919553;29;20438;-90
2022/03/26 10:17:21;;;;;;;34.90;19.70;;;;;;;11.04;57.51;101267.53;4934966;29;20263;-90
2022/03/26 10:19:49;;;;;;;33.55;20.08;;;;;;;11.02;57.08;101268.59;4919585;29;20122;-90
2022/03/26 10:22:29;;;;;;;34.13;20.65;;;;;;;11.02;56.89;101264.09;4919804;29;20034;-90
2022/03/26 10:24:59;;;;;;;33.17;21.15;;;;;;;11.08;57.36;101265.47;4934408;29;20039;-91
2022/03/26 10:27:25;;;;;;;32.22;19.70;;;;;;;11.17;56.79;101269.31;4918782;29;20024;-90
2022/03/26 10:29:55;;;;;;;38.88;20.33;;;;;;;11.12;57.06;101266.13;4918978;29;20030;-91
2022/03/26 10:32:39;;;;;;;33.88;19.08;;;;;;;11.09;57.86;101263.66;4919172;29;20381;-90
2022/03/26 10:35:13;;;;;;;32.72;18.80;;;;;;;11.13;58.53;101254.44;4919442;29;20059;-90
2022/03/26 10:37:59;;;;;;;34.15;19.70;;;;;;;11.14;57.82;101261.50;4917974;29;20040;-91
2022/03/26 10:40:37;;;;;;;30.27;19.40;;;;;;;11.19;56.89;101268.25;4918988;29;20019;-91
2022/03/26 10:43:14;;;;;;;35.50;19.75;;;;;;;11.20;56.43;101261.06;4919349;29;20027;-91
2022/03/26 10:46:09;;;;;;;37.78;19.45;;;;;;;11.32;55.70;101262.88;4904857;29;20055;-90
2022/03/26 10:48:39;;;;;;;36.83;20.20;;;;;;;11.30;55.67;101262.97;4882037;29;20501;-92
2022/03/26 10:51:09;;;;;;;32.80;20.10;;;;;;;11.32;55.40;101257.50;4910002;29;20036;-93
2022/03/26 10:53:36;;;;;;;34.58;20.45;;;;;;;11.36;55.27;101256.34;4895280;29;20047;-91
2022/03/26 10:56:03;;;;;;;36.78;19.95;;;;;;;11.46;56.13;101260.06;4895027;29;20524;-90
2022/03/26 10:58:33;;;;;;;31.92;20.27;;;;;;;11.50;56.15;101263.38;4893188;29;20058;-91
2022/03/26 11:00:59;;;;;;;31.70;18.33;;;;;;;11.57;56.13;101270.84;4908395;29;20188;-91
2022/03/26 11:03:25;;;;;;;34.53;20.38;;;;;;;11.49;56.89;101257.16;4893047;29;20047;-91
2022/03/26 11:05:54;;;;;;;30.95;19.52;;;;;;;11.49;57.27;101262.53;4893552;29;20253;-90
2022/03/26 11:08:20;;;;;;;35.47;21.17;;;;;;;11.52;57.22;101262.31;4893544;29;20098;-87
2022/03/26 11:10:46;;;;;;;31.17;19.23;;;;;;;11.46;58.88;101252.03;4893945;29;20474;-91
2022/03/26 11:13:12;;;;;;;32.97;20.90;;;;;;;11.54;57.87;101243.44;4893066;29;20037;-91